Time;durP1;ratioP1;P1;durP2;ratioP2;P2;SDS_P1;SDS_P2;PMS_P1;PMS_P2;Temp;Humidity;BMP_temperature;BMP_pressure;BME280_temperature;BME280_humidity;BME280_pressure;Samples;Min_cycle;Max_cycle;Signal;HPM_P1;HPM_P2
2023/08/19 00:00:15;;;;;;;0.00;0.00;;;23.70;93.30;;;;;;5085409;28;19947;-83
2023/08/19 00:02:44;;;;;;;0.15;0.15;;;23.70;93.50;;;;;;5083058;28;20028;-82
2023/08/19 00:05:10;;;;;;;0.00;0.00;;;23.60;94.00;;;;;;5085009;28;20024;-83
2023/08/19 00:07:36;;;;;;;0.00;0.00;;;23.50;94.50;;;;;;5079589;28;20048;-83
2023/08/19 00:10:04;;;;;;;0.00;0.00;;;23.70;94.20;;;;;;5084517;28;20542;-83
2023/08/19 00:12:30;;;;;;;0.00;0.00;;;23.70;94.10;;;;;;5084452;28;20032;-82
2023/08/19 00:14:56;;;;;;;0.00;0.00;;;23.60;93.90;;;;;;5083404;28;20647;-82
2023/08/19 00:17:22;;;;;;;0.10;0.10;;;23.70;91.70;;;;;;5084744;28;20028;-82
2023/08/19 00:19:48;;;;;;;0.38;0.38;;;23.60;92.00;;;;;;5084210;28;20055;-81
2023/08/19 00:22:14;;;;;;;0.00;0.00;;;23.50;93.10;;;;;;5083644;28;20161;-81
2023/08/19 00:24:42;;;;;;;0.00;0.00;;;23.50;93.30;;;;;;5084120;28;20023;-81
2023/08/19 00:27:08;;;;;;;1.45;0.80;;;23.40;93.10;;;;;;5084093;28;20020;-81
2023/08/19 00:29:33;;;;;;;0.00;0.00;;;23.30;93.80;;;;;;5083891;28;20711;-81
2023/08/19 00:31:59;;;;;;;0.00;0.00;;;23.30;94.20;;;;;;5082542;28;20028;-81
2023/08/19 00:34:25;;;;;;;0.00;0.00;;;23.30;94.70;;;;;;5083430;28;20547;-81
2023/08/19 00:36:50;;;;;;;0.00;0.00;;;23.20;95.20;;;;;;5084069;28;20399;-81
2023/08/19 00:39:16;;;;;;;0.00;0.00;;;23.10;95.60;;;;;;5082242;28;20804;-81
2023/08/19 00:41:44;;;;;;;0.20;0.20;;;23.10;95.60;;;;;;5082476;28;20040;-80
2023/08/19 00:44:10;;;;;;;0.00;0.00;;;22.90;96.50;;;;;;5083677;28;20111;-81
2023/08/19 00:46:35;;;;;;;0.00;0.00;;;22.80;96.80;;;;;;5082732;28;20070;-80
2023/08/19 00:49:01;;;;;;;0.00;0.00;;;22.90;97.00;;;;;;5082536;28;20103;-80
2023/08/19 00:51:27;;;;;;;1.48;1.10;;;22.80;97.10;;;;;;5082296;28;20012;-80
2023/08/19 00:53:53;;;;;;;0.00;0.00;;;22.70;97.30;;;;;;5083519;28;20028;-80
2023/08/19 00:56:19;;;;;;;0.65;0.47;;;22.70;97.30;;;;;;5083333;28;20035;-81
2023/08/19 00:58:45;;;;;;;0.35;0.35;;;22.60;97.60;;;;;;5083601;28;20056;-82
2023/08/19 01:01:11;;;;;;;0.00;0.00;;;22.60;97.30;;;;;;5082481;28;20147;-81
2023/08/19 01:03:37;;;;;;;1.20;1.10;;;22.70;96.70;;;;;;5076979;28;20116;-81
2023/08/19 01:06:26;;;;;;;0.00;0.00;;;22.60;96.90;;;;;;5081878;28;20115;-81
2023/08/19 01:09:23;;;;;;;0.10;0.10;;;22.60;96.80;;;;;;5083260;28;20052;-81
2023/08/19 01:12:02;;;;;;;0.00;0.00;;;22.50;97.00;;;;;;5081960;28;20956;-82
2023/08/19 01:14:41;;;;;;;0.03;0.03;;;22.50;97.30;;;;;;5078309;28;20036;-82
2023/08/19 01:17:10;;;;;;;0.05;0.05;;;22.40;97.40;;;;;;5083459;28;20065;-82
2023/08/19 01:19:38;;;;;;;0.35;0.32;;;22.40;97.50;;;;;;5083001;28;20020;-81
2023/08/19 01:22:07;;;;;;;0.00;0.00;;;22.50;97.30;;;;;;5082624;28;20410;-81
2023/08/19 01:24:40;;;;;;;1.08;0.40;;;22.50;96.50;;;;;;5078956;28;20795;-81
2023/08/19 01:27:20;;;;;;;0.17;0.17;;;22.50;96.10;;;;;;5077587;28;20031;-81
2023/08/19 01:29:47;;;;;;;0.00;0.00;;;22.50;96.40;;;;;;5072509;28;20613;-82
2023/08/19 01:32:14;;;;;;;1.77;1.00;;;22.50;96.30;;;;;;5070818;28;20021;-81
2023/08/19 01:34:39;;;;;;;0.30;0.30;;;22.40;96.50;;;;;;5080447;28;20032;-82
2023/08/19 01:37:08;;;;;;;0.00;0.00;;;22.40;96.80;;;;;;5080471;28;20020;-81
2023/08/19 01:39:36;;;;;;;0.10;0.10;;;22.40;97.10;;;;;;5078238;28;20036;-81
2023/08/19 01:42:03;;;;;;;0.88;0.52;;;22.30;97.20;;;;;;5082832;28;20035;-81
2023/08/19 01:44:28;;;;;;;;;;;22.30;97.30;;;;;;5083296;28;20294;-81
2023/08/19 01:46:54;;;;;;;0.00;0.00;;;22.30;97.20;;;;;;5082007;28;19914;-82
2023/08/19 01:49:20;;;;;;;0.00;0.00;;;22.20;97.50;;;;;;5082111;28;20073;-82
2023/08/19 01:51:45;;;;;;;0.20;0.20;;;22.20;97.90;;;;;;5082761;28;20727;-83
2023/08/19 01:54:11;;;;;;;0.00;0.00;;;22.10;98.30;;;;;;5082756;28;20075;-82
2023/08/19 01:56:37;;;;;;;0.00;0.00;;;22.00;98.60;;;;;;5083367;28;20035;-82
2023/08/19 01:59:03;;;;;;;0.00;0.00;;;21.90;98.80;;;;;;5081166;28;20820;-82
2023/08/19 02:01:28;;;;;;;0.00;0.00;;;22.00;98.90;;;;;;5083864;28;20597;-82
2023/08/19 02:03:54;;;;;;;0.00;0.00;;;22.00;98.90;;;;;;5080166;28;20040;-82
2023/08/19 02:06:20;;;;;;;0.20;0.20;;;21.90;99.00;;;;;;5086951;28;20028;-81
2023/08/19 02:08:45;;;;;;;0.00;0.00;;;21.90;99.20;;;;;;5086572;28;20407;-81
2023/08/19 02:11:11;;;;;;;1.30;0.67;;;21.90;99.20;;;;;;5086673;28;20053;-82
2023/08/19 02:13:37;;;;;;;0.03;0.03;;;21.80;99.50;;;;;;5086241;28;20032;-81
2023/08/19 02:16:02;;;;;;;0.03;0.03;;;21.80;99.50;;;;;;5086047;28;20066;-82
2023/08/19 02:18:28;;;;;;;0.00;0.00;;;21.70;99.60;;;;;;5086966;28;20099;-82
2023/08/19 02:20:54;;;;;;;0.00;0.00;;;21.70;99.80;;;;;;5086693;28;20067;-82
2023/08/19 02:23:20;;;;;;;0.00;0.00;;;21.50;99.90;;;;;;5086331;28;20406;-81
2023/08/19 02:25:45;;;;;;;2.47;2.27;;;21.50;99.90;;;;;;5086107;28;20839;-81
2023/08/19 02:28:11;;;;;;;0.30;0.30;;;21.60;99.70;;;;;;5086101;28;20040;-80
2023/08/19 02:30:39;;;;;;;0.37;0.27;;;21.50;99.60;;;;;;5085837;28;20376;-80
2023/08/19 02:33:08;;;;;;;0.00;0.00;;;21.50;99.60;;;;;;5085023;28;20020;-81
2023/08/19 02:35:34;;;;;;;0.05;0.05;;;21.40;99.70;;;;;;5084624;28;20024;-80
2023/08/19 02:37:59;;;;;;;0.00;0.00;;;21.40;99.70;;;;;;5084870;28;20031;-81
2023/08/19 02:40:27;;;;;;;0.00;0.00;;;21.30;99.90;;;;;;5085127;28;20032;-81
2023/08/19 02:42:53;;;;;;;1.33;1.25;;;21.30;99.90;;;;;;5082277;28;20031;-80
2023/08/19 02:45:20;;;;;;;2.07;0.83;;;21.20;99.90;;;;;;5084330;28;20027;-81
2023/08/19 02:47:45;;;;;;;;;;;21.30;99.90;;;;;;5085861;28;20020;-80
2023/08/19 02:50:11;;;;;;;0.00;0.00;;;21.30;99.90;;;;;;5085819;28;19923;-81
2023/08/19 02:52:37;;;;;;;0.67;0.40;;;21.30;99.90;;;;;;5083738;28;20020;-81
2023/08/19 02:55:02;;;;;;;0.20;0.20;;;21.30;99.90;;;;;;5085347;28;20023;-81
2023/08/19 02:57:28;;;;;;;0.10;0.10;;;21.30;99.90;;;;;;5085592;28;20016;-82
2023/08/19 02:59:55;;;;;;;0.00;0.00;;;21.40;99.90;;;;;;5086089;28;20111;-82
2023/08/19 03:02:20;;;;;;;0.03;0.03;;;21.40;99.90;;;;;;5080316;28;20166;-82
2023/08/19 03:04:46;;;;;;;0.00;0.00;;;21.40;99.90;;;;;;5084184;28;20111;-82
2023/08/19 03:07:12;;;;;;;0.10;0.10;;;21.40;99.90;;;;;;5083382;28;20063;-82
2023/08/19 03:09:38;;;;;;;0.00;0.00;;;21.30;99.90;;;;;;5085162;28;20039;-80
2023/08/19 03:12:04;;;;;;;0.00;0.00;;;21.30;99.90;;;;;;5084532;28;20796;-80
2023/08/19 03:14:29;;;;;;;0.28;0.28;;;21.30;99.90;;;;;;5084234;28;21179;-82
2023/08/19 03:16:55;;;;;;;0.00;0.00;;;21.20;99.80;;;;;;5085216;28;20032;-82
2023/08/19 03:19:21;;;;;;;0.00;0.00;;;21.20;99.70;;;;;;5084434;28;20028;-82
2023/08/19 03:21:48;;;;;;;0.33;0.33;;;21.30;99.30;;;;;;5085281;28;20034;-82
2023/08/19 03:24:14;;;;;;;0.03;0.03;;;21.30;99.00;;;;;;5083816;28;20028;-82
2023/08/19 03:26:40;;;;;;;0.10;0.10;;;21.20;98.80;;;;;;5085059;28;20455;-81
2023/08/19 03:29:06;;;;;;;0.00;0.00;;;21.30;98.50;;;;;;5085342;28;20103;-81
2023/08/19 03:31:31;;;;;;;0.00;0.00;;;21.30;97.90;;;;;;5085175;28;20437;-81
2023/08/19 03:33:57;;;;;;;0.00;0.00;;;21.10;98.10;;;;;;5085703;28;20108;-82
2023/08/19 03:36:23;;;;;;;1.67;0.43;;;21.20;97.70;;;;;;5084891;28;20028;-81
2023/08/19 03:38:48;;;;;;;0.00;0.00;;;21.20;97.10;;;;;;5082627;28;20046;-81
2023/08/19 03:41:14;;;;;;;0.83;0.33;;;21.20;97.00;;;;;;5084053;28;20058;-81
2023/08/19 03:43:40;;;;;;;0.00;0.00;;;21.20;96.70;;;;;;5083943;28;20024;-82
2023/08/19 03:46:05;;;;;;;0.00;0.00;;;21.20;96.40;;;;;;5085165;28;20099;-82
2023/08/19 03:48:31;;;;;;;0.10;0.10;;;21.20;96.30;;;;;;5084894;28;20032;-82
2023/08/19 03:50:57;;;;;;;0.63;0.50;;;21.20;96.20;;;;;;5083550;28;20027;-81
2023/08/19 03:53:22;;;;;;;0.00;0.00;;;21.20;96.40;;;;;;5084471;28;20023;-81
2023/08/19 03:55:49;;;;;;;0.13;0.13;;;21.20;96.50;;;;;;5083603;28;20024;-81
2023/08/19 03:58:15;;;;;;;0.00;0.00;;;21.20;96.90;;;;;;5085082;28;20399;-81
2023/08/19 04:00:40;;;;;;;0.83;0.83;;;21.20;96.70;;;;;;5084677;28;20059;-81
2023/08/19 04:03:06;;;;;;;0.00;0.00;;;21.20;96.70;;;;;;5079103;28;20829;-81
2023/08/19 04:05:31;;;;;;;0.00;0.00;;;21.20;96.80;;;;;;5084098;28;20032;-81
2023/08/19 04:07:57;;;;;;;0.70;0.70;;;21.10;96.90;;;;;;5084282;28;20150;-82
2023/08/19 04:10:23;;;;;;;0.10;0.10;;;21.20;96.70;;;;;;5082895;28;20054;-82
2023/08/19 04:12:48;;;;;;;0.03;0.03;;;21.20;96.70;;;;;;5084619;28;20063;-83
2023/08/19 04:15:14;;;;;;;0.10;0.10;;;21.10;96.60;;;;;;5083352;28;20107;-80
2023/08/19 04:17:40;;;;;;;0.23;0.20;;;21.10;96.20;;;;;;5083796;28;20051;-82
2023/08/19 04:20:09;;;;;;;0.33;0.30;;;21.10;96.00;;;;;;5083869;28;20039;-81
2023/08/19 04:22:36;;;;;;;0.00;0.00;;;21.10;95.50;;;;;;5084039;28;20573;-81
2023/08/19 04:25:02;;;;;;;0.00;0.00;;;21.00;95.70;;;;;;5082030;28;20056;-81
2023/08/19 04:27:29;;;;;;;0.00;0.00;;;20.90;95.60;;;;;;5082398;28;20059;-82
2023/08/19 04:29:54;;;;;;;;;;;20.80;95.40;;;;;;5082735;28;20046;-79
2023/08/19 04:32:20;;;;;;;0.32;0.32;;;20.80;95.00;;;;;;5081812;28;20479;-79
2023/08/19 04:34:46;;;;;;;3.73;1.23;;;20.90;94.30;;;;;;5081778;28;20044;-79
2023/08/19 04:37:11;;;;;;;0.00;0.00;;;20.90;94.70;;;;;;5083523;28;20028;-79
2023/08/19 04:39:37;;;;;;;2.90;0.57;;;20.80;95.60;;;;;;5080368;28;20028;-79
2023/08/19 04:42:03;;;;;;;0.00;0.00;;;20.80;96.40;;;;;;5082170;28;20039;-78
2023/08/19 04:44:30;;;;;;;0.00;0.00;;;20.70;97.10;;;;;;5083481;28;20107;-78
2023/08/19 04:46:55;;;;;;;0.00;0.00;;;20.70;97.60;;;;;;5084328;28;20051;-78
2023/08/19 04:49:21;;;;;;;0.20;0.20;;;20.60;98.00;;;;;;5083720;28;20062;-78
2023/08/19 04:54:16;;;;;;;0.10;0.10;;;20.60;98.40;;;;;;5036661;28;19936;-83
2023/08/19 04:56:53;;;;;;;0.17;0.17;;;20.60;98.60;;;;;;5047884;28;20028;-84
2023/08/19 04:59:21;;;;;;;0.10;0.10;;;20.60;98.70;;;;;;5025261;28;20035;-81
2023/08/19 05:01:50;;;;;;;0.10;0.10;;;20.50;99.00;;;;;;5025934;28;20029;-80
2023/08/19 05:04:16;;;;;;;0.00;0.00;;;20.40;99.40;;;;;;5047001;28;20395;-83
2023/08/19 05:06:52;;;;;;;4.30;1.90;;;20.40;99.60;;;;;;5029665;28;20032;-83
2023/08/19 05:09:41;;;;;;;0.10;0.10;;;20.40;99.70;;;;;;5046850;28;20025;-87
2023/08/19 05:12:39;;;;;;;0.25;0.25;;;20.40;99.70;;;;;;5045304;28;20037;-84
2023/08/19 05:15:10;;;;;;;0.30;0.30;;;20.50;99.60;;;;;;5017304;28;20140;-79
2023/08/19 05:17:35;;;;;;;;;;;20.60;99.70;;;;;;5029635;28;20032;-78
2023/08/19 05:20:01;;;;;;;0.27;0.27;;;20.80;99.80;;;;;;5045464;28;19919;-79
2023/08/19 05:22:26;;;;;;;0.00;0.00;;;20.90;99.20;;;;;;5045860;28;20275;-79
2023/08/19 05:24:52;;;;;;;0.00;0.00;;;21.10;98.50;;;;;;5033707;28;20029;-80
2023/08/19 05:27:18;;;;;;;0.00;0.00;;;21.10;98.70;;;;;;5044430;28;20119;-82
2023/08/19 05:29:43;;;;;;;0.10;0.10;;;21.30;98.20;;;;;;5047156;28;20123;-79
2023/08/19 05:32:09;;;;;;;0.00;0.00;;;21.50;97.80;;;;;;5035422;28;20036;-80
2023/08/19 05:34:35;;;;;;;0.10;0.10;;;21.60;97.70;;;;;;5043187;28;20051;-83
2023/08/19 05:37:04;;;;;;;0.07;0.07;;;21.80;97.50;;;;;;5030261;28;20040;-83
2023/08/19 05:39:30;;;;;;;0.20;0.20;;;22.20;96.80;;;;;;5035381;28;20040;-83
2023/08/19 05:41:56;;;;;;;0.00;0.00;;;22.70;95.80;;;;;;5044559;28;20029;-86
2023/08/19 05:44:21;;;;;;;0.00;0.00;;;23.00;95.20;;;;;;5043297;28;20036;-86
2023/08/19 05:46:47;;;;;;;0.00;0.00;;;23.00;95.50;;;;;;5046193;28;20108;-86
2023/08/19 05:49:13;;;;;;;0.00;0.00;;;23.20;95.20;;;;;;5043342;28;20021;-86
2023/08/19 05:51:39;;;;;;;0.07;0.07;;;23.30;95.40;;;;;;5047393;28;20032;-86
2023/08/19 05:54:05;;;;;;;0.00;0.00;;;23.60;94.60;;;;;;5028093;28;20048;-87
2023/08/19 05:56:31;;;;;;;0.00;0.00;;;23.80;94.10;;;;;;5046841;28;20113;-86
2023/08/19 05:58:59;;;;;;;0.03;0.03;;;23.70;93.90;;;;;;5047739;28;20112;-86
2023/08/19 06:01:25;;;;;;;0.10;0.10;;;24.20;93.30;;;;;;5028816;28;20586;-86
2023/08/19 06:04:00;;;;;;;0.15;0.15;;;24.90;91.90;;;;;;5049215;28;20774;-87
2023/08/19 06:06:27;;;;;;;0.00;0.00;;;25.10;91.30;;;;;;5031463;28;20036;-95
2023/08/19 06:08:53;;;;;;;0.00;0.00;;;24.90;91.10;;;;;;5039421;28;20033;-87
2023/08/19 06:11:19;;;;;;;0.20;0.20;;;24.70;91.70;;;;;;5023397;28;20025;-86
2023/08/19 06:14:05;;;;;;;0.07;0.07;;;23.90;92.70;;;;;;5049022;28;20075;-87
2023/08/19 06:16:51;;;;;;;2.60;0.70;;;22.60;95.10;;;;;;5029088;28;20871;-86
2023/08/19 06:19:16;;;;;;;0.10;0.10;;;22.90;96.10;;;;;;5032739;28;20036;-87
2023/08/19 06:25:05;;;;;;;0.00;0.00;;;26.20;90.00;;;;;;5046878;28;20040;-86
2023/08/19 06:27:31;;;;;;;0.00;0.00;;;26.70;89.60;;;;;;5021663;28;20076;-88
2023/08/19 06:29:57;;;;;;;0.00;0.00;;;27.20;87.90;;;;;;5041777;28;20029;-89
2023/08/19 06:32:23;;;;;;;0.20;0.20;;;27.50;87.90;;;;;;5039997;28;20136;-88
2023/08/19 06:34:54;;;;;;;0.00;0.00;;;27.30;85.30;;;;;;5046459;28;20031;-94
2023/08/19 06:37:29;;;;;;;0.00;0.00;;;27.80;84.40;;;;;;5023127;28;20088;-90
2023/08/19 06:40:08;;;;;;;0.00;0.00;;;28.20;84.10;;;;;;5028094;28;20041;-88
2023/08/19 06:42:35;;;;;;;0.00;0.00;;;28.70;81.90;;;;;;5019585;28;20049;-90
2023/08/19 06:45:02;;;;;;;0.10;0.10;;;29.20;81.70;;;;;;5045413;28;20052;-90
2023/08/19 06:47:31;;;;;;;0.00;0.00;;;29.10;82.00;;;;;;5041480;28;20065;-90
2023/08/19 06:49:57;;;;;;;0.00;0.00;;;28.80;81.30;;;;;;5027977;28;20116;-92
2023/08/19 06:52:24;;;;;;;0.00;0.00;;;29.40;82.90;;;;;;5032650;28;20124;-89
2023/08/19 06:54:50;;;;;;;0.00;0.00;;;29.40;80.40;;;;;;5050340;28;20112;-90
2023/08/19 06:57:21;;;;;;;;;;;29.30;77.40;;;;;;5051023;28;20074;-90
2023/08/19 06:59:51;;;;;;;0.00;0.00;;;29.20;77.10;;;;;;5032125;28;19959;-89
2023/08/19 07:02:19;;;;;;;0.00;0.00;;;29.30;76.50;;;;;;5050636;28;20029;-89
2023/08/19 07:04:48;;;;;;;0.05;0.05;;;29.50;76.10;;;;;;5050309;28;20025;-90
2023/08/19 07:07:21;;;;;;;0.10;0.10;;;29.50;75.80;;;;;;5039191;28;20925;-89
2023/08/19 07:09:47;;;;;;;0.00;0.00;;;29.70;75.80;;;;;;5046937;28;20523;-89
2023/08/19 07:12:13;;;;;;;0.00;0.00;;;30.00;74.70;;;;;;5046966;28;20514;-89
2023/08/19 07:14:40;;;;;;;0.00;0.00;;;30.10;74.90;;;;;;5049752;28;20675;-89
2023/08/19 07:17:09;;;;;;;0.03;0.03;;;30.00;73.10;;;;;;5050608;28;20028;-90
2023/08/19 07:19:39;;;;;;;0.00;0.00;;;30.40;74.30;;;;;;5030351;28;20087;-91
2023/08/19 07:22:05;;;;;;;0.00;0.00;;;30.60;71.40;;;;;;5031211;28;20040;-89
2023/08/19 07:24:31;;;;;;;0.00;0.00;;;30.50;70.50;;;;;;5030832;28;20124;-91
2023/08/19 07:27:00;;;;;;;;;;;30.60;72.00;;;;;;5050915;28;20029;-89
2023/08/19 07:29:26;;;;;;;1.55;1.10;;;30.90;68.80;;;;;;5031642;28;19915;-90
2023/08/19 07:31:54;;;;;;;;;;;31.90;69.90;;;;;;5031873;28;20033;-89
2023/08/19 07:34:20;;;;;;;0.08;0.08;;;32.40;66.90;;;;;;5032030;28;20497;-90
2023/08/19 07:36:46;;;;;;;0.15;0.15;;;32.70;65.60;;;;;;5049742;28;20025;-90
2023/08/19 07:39:11;;;;;;;0.00;0.00;;;33.20;66.90;;;;;;5050644;28;20053;-89
2023/08/19 07:41:39;;;;;;;0.00;0.00;;;32.80;63.60;;;;;;5051090;28;20025;-91
2023/08/19 07:44:05;;;;;;;0.00;0.00;;;33.80;62.70;;;;;;5050655;28;20021;-91
2023/08/19 07:46:32;;;;;;;0.00;0.00;;;34.30;61.60;;;;;;5032817;28;20036;-90
2023/08/19 07:48:58;;;;;;;0.20;0.13;;;34.30;60.00;;;;;;5032119;28;20033;-90
2023/08/19 07:51:23;;;;;;;0.00;0.00;;;35.20;58.60;;;;;;5031580;28;20029;-89
2023/08/19 07:53:52;;;;;;;0.00;0.00;;;35.40;56.50;;;;;;5031079;28;20049;-90
2023/08/19 07:56:18;;;;;;;0.00;0.00;;;33.60;59.40;;;;;;5049822;28;20040;-90
2023/08/19 07:58:44;;;;;;;2.47;0.55;;;31.40;64.50;;;;;;5030687;28;20037;-91
2023/08/19 08:01:10;;;;;;;0.00;0.00;;;31.30;64.80;;;;;;5049340;28;20082;-90
2023/08/19 08:03:39;;;;;;;0.10;0.10;;;33.60;63.80;;;;;;5050286;28;20029;-89
2023/08/19 08:06:06;;;;;;;0.00;0.00;;;33.20;64.90;;;;;;5027940;28;20025;-89
2023/08/19 08:08:31;;;;;;;0.00;0.00;;;31.80;63.80;;;;;;5045133;28;20089;-90
2023/08/19 08:10:57;;;;;;;5.82;1.85;;;33.60;62.90;;;;;;5031482;28;20048;-91
2023/08/19 08:13:23;;;;;;;0.00;0.00;;;35.60;58.80;;;;;;5031982;28;20764;-90
2023/08/19 08:15:49;;;;;;;0.10;0.10;;;36.20;56.50;;;;;;5031351;28;20029;-90
2023/08/19 08:18:17;;;;;;;0.00;0.00;;;36.80;55.00;;;;;;5049918;28;20039;-90
2023/08/19 08:20:44;;;;;;;0.40;0.30;;;36.70;54.60;;;;;;5050122;28;20039;-90
2023/08/19 08:23:10;;;;;;;0.10;0.10;;;36.90;54.50;;;;;;5031483;28;20106;-89
2023/08/19 08:25:38;;;;;;;2.55;1.00;;;36.80;52.40;;;;;;5032161;28;20028;-90
2023/08/19 08:28:07;;;;;;;0.00;0.00;;;36.60;53.00;;;;;;5049418;28;20057;-90
2023/08/19 08:30:33;;;;;;;6.72;1.25;;;37.00;54.90;;;;;;5049213;28;20033;-90
2023/08/19 08:32:59;;;;;;;0.00;0.00;;;37.40;53.70;;;;;;5048875;28;20037;-89
2023/08/19 08:35:24;;;;;;;0.00;0.00;;;37.70;53.40;;;;;;5049016;28;20029;-90
2023/08/19 08:37:50;;;;;;;0.00;0.00;;;37.70;53.50;;;;;;5030615;28;20056;-90
2023/08/19 08:40:18;;;;;;;0.00;0.00;;;38.00;53.70;;;;;;5031224;28;20060;-90
2023/08/19 08:42:46;;;;;;;0.00;0.00;;;38.40;50.40;;;;;;5031783;28;20510;-90
2023/08/19 08:45:14;;;;;;;0.00;0.00;;;39.10;49.40;;;;;;5031980;28;20634;-89
2023/08/19 08:47:42;;;;;;;0.00;0.00;;;38.40;48.20;;;;;;5049156;28;20103;-90
2023/08/19 08:50:09;;;;;;;0.00;0.00;;;38.40;49.20;;;;;;5022021;28;20029;-90
2023/08/19 08:52:35;;;;;;;0.00;0.00;;;38.10;44.80;;;;;;5028362;28;20054;-91
2023/08/19 08:55:04;;;;;;;0.00;0.00;;;38.40;46.90;;;;;;5030880;28;20491;-90
2023/08/19 08:57:30;;;;;;;0.00;0.00;;;39.10;49.10;;;;;;5048462;28;20119;-91
2023/08/19 08:59:56;;;;;;;0.00;0.00;;;40.00;48.40;;;;;;5048827;28;20120;-89
2023/08/19 09:02:25;;;;;;;0.00;0.00;;;38.90;46.30;;;;;;5029813;28;20036;-87
2023/08/19 09:04:51;;;;;;;0.00;0.00;;;40.00;46.60;;;;;;5048356;28;20122;-88
2023/08/19 09:07:32;;;;;;;0.00;0.00;;;40.30;46.90;;;;;;5047811;28;20032;-89
2023/08/19 09:10:02;;;;;;;0.00;0.00;;;40.60;46.30;;;;;;5030149;28;20028;-88
2023/08/19 09:12:48;;;;;;;;;;;;;;;;;;;;;
2023/08/19 09:15:55;;;;;;;0.00;0.00;;;39.90;43.60;;;;;;5048014;28;20021;-88
2023/08/19 09:18:24;;;;;;;0.00;0.00;;;40.30;45.80;;;;;;5042893;28;20037;-89
2023/08/19 09:20:53;;;;;;;0.00;0.00;;;40.90;46.30;;;;;;5028361;28;20037;-89
2023/08/19 09:23:21;;;;;;;0.00;0.00;;;40.60;44.60;;;;;;5045947;28;20032;-89
2023/08/19 09:25:47;;;;;;;0.00;0.00;;;40.10;44.00;;;;;;5031043;28;20056;-89
2023/08/19 09:28:17;;;;;;;0.55;0.55;;;40.50;42.00;;;;;;5048872;28;20055;-88
2023/08/19 09:30:43;;;;;;;0.00;0.00;;;40.30;42.70;;;;;;5028080;28;20082;-90
2023/08/19 09:33:24;;;;;;;0.00;0.00;;;41.10;44.90;;;;;;5045883;28;20028;-89
2023/08/19 09:36:23;;;;;;;0.00;0.00;;;41.10;42.90;;;;;;5023321;28;20033;-88
2023/08/19 09:38:54;;;;;;;0.00;0.00;;;40.90;43.90;;;;;;5046859;28;20036;-89
2023/08/19 09:45:31;;;;;;;0.00;0.00;;;41.50;42.60;;;;;;5006132;28;20033;-88
2023/08/19 09:47:55;;;;;;;0.00;0.00;;;41.50;45.10;;;;;;5038728;28;21029;-89
2023/08/19 09:50:48;;;;;;;0.05;0.05;;;41.20;45.40;;;;;;5029813;28;20037;-89
2023/08/19 09:53:16;;;;;;;0.15;0.15;;;41.20;45.50;;;;;;5013097;28;20065;-88
2023/08/19 09:56:31;;;;;;;;;;;;;;;;;;;;;
2023/08/19 09:59:27;;;;;;;0.00;0.00;;;41.20;48.90;;;;;;4990496;28;20059;-86
2023/08/19 10:02:04;;;;;;;1.75;0.45;;;40.30;47.40;;;;;;5024925;28;20045;-92
2023/08/19 10:05:01;;;;;;;0.20;0.20;;;39.90;45.60;;;;;;5021828;28;20101;-89
2023/08/19 10:07:31;;;;;;;0.00;0.00;;;40.00;44.80;;;;;;5025371;28;20083;-87
2023/08/19 10:10:01;;;;;;;0.05;0.05;;;38.80;46.20;;;;;;5025886;28;20447;-87
2023/08/19 10:12:38;;;;;;;0.00;0.00;;;39.50;44.40;;;;;;5022584;28;20405;-87
2023/08/19 10:15:04;;;;;;;0.03;0.03;;;40.10;44.50;;;;;;5028300;28;20029;-87
2023/08/19 10:17:33;;;;;;;0.00;0.00;;;40.50;43.10;;;;;;5027423;28;20063;-84
2023/08/19 10:20:07;;;;;;;0.55;0.35;;;39.50;43.70;;;;;;5019840;28;20788;-85
2023/08/19 10:26:09;;;;;;;0.00;0.00;;;39.50;43.30;;;;;;4997637;28;20025;-85
2023/08/19 10:29:13;;;;;;;0.00;0.00;;;38.40;43.10;;;;;;5044585;28;20134;-87
2023/08/19 10:32:23;;;;;;;0.08;0.08;;;37.30;45.60;;;;;;4993080;28;20069;-87
2023/08/19 10:39:07;;;;;;;0.05;0.05;;;35.30;47.40;;;;;;4951742;28;20123;-86
2023/08/19 10:41:41;;;;;;;0.15;0.15;;;35.60;50.20;;;;;;4931913;28;20053;-86
2023/08/19 10:44:31;;;;;;;0.00;0.00;;;34.50;47.00;;;;;;4937308;28;20086;-86
2023/08/19 10:47:18;;;;;;;0.15;0.15;;;34.40;47.70;;;;;;4952962;28;20039;-85
2023/08/19 10:49:46;;;;;;;0.00;0.00;;;34.30;49.80;;;;;;4950409;28;20039;-84
2023/08/19 10:52:24;;;;;;;0.00;0.00;;;34.00;47.70;;;;;;4933191;28;20035;-85
2023/08/19 10:54:50;;;;;;;0.00;0.00;;;33.80;48.80;;;;;;4936702;29;20035;-86
2023/08/19 10:57:27;;;;;;;;;;;33.50;47.20;;;;;;5022763;28;20034;-87
2023/08/19 11:03:02;;;;;;;0.00;0.00;;;33.10;48.90;;;;;;5030734;28;20053;-86
2023/08/19 11:05:33;;;;;;;0.00;0.00;;;33.30;48.80;;;;;;5026486;28;20026;-86
2023/08/19 11:08:35;;;;;;;;;;;;;;;;;;;;;
2023/08/19 11:17:31;;;;;;;0.00;0.00;;;33.20;49.60;;;;;;4990623;28;20037;-85
2023/08/19 11:20:05;;;;;;;0.05;0.05;;;32.70;49.80;;;;;;5020769;28;20069;-87
2023/08/19 11:22:39;;;;;;;0.00;0.00;;;32.60;47.20;;;;;;5030007;28;20032;-88
2023/08/19 11:25:11;;;;;;;0.17;0.17;;;32.70;47.50;;;;;;5019791;28;20041;-88
2023/08/19 11:30:53;;;;;;;0.00;0.00;;;32.40;48.40;;;;;;4938438;28;20042;-87
2023/08/19 11:33:33;;;;;;;0.00;0.00;;;32.40;50.00;;;;;;4945788;28;20824;-87
2023/08/19 11:36:00;;;;;;;0.10;0.10;;;32.30;49.50;;;;;;5026292;28;20760;-86
2023/08/19 11:39:06;;;;;;;;;;;32.20;50.70;;;;;;5023949;28;20034;-87
2023/08/19 11:41:32;;;;;;;0.00;0.00;;;32.20;52.70;;;;;;5015455;28;19976;-85
2023/08/19 11:43:58;;;;;;;0.10;0.10;;;32.00;49.10;;;;;;5022769;28;20399;-87
2023/08/19 11:46:31;;;;;;;0.00;0.00;;;32.10;53.80;;;;;;5027758;28;20100;-86
2023/08/19 11:48:58;;;;;;;2.28;1.55;;;32.00;49.10;;;;;;5027843;28;20029;-86
2023/08/19 11:51:26;;;;;;;0.30;0.30;;;31.70;49.80;;;;;;5026732;28;20047;-85
2023/08/19 11:53:54;;;;;;;0.00;0.00;;;31.40;52.10;;;;;;5044768;28;20049;-85
2023/08/19 11:56:23;;;;;;;0.00;0.00;;;31.60;55.20;;;;;;5028599;28;20029;-85
2023/08/19 11:58:52;;;;;;;0.00;0.00;;;31.70;52.40;;;;;;5045409;28;20064;-86
2023/08/19 12:01:22;;;;;;;0.00;0.00;;;31.90;55.60;;;;;;5045584;28;20129;-86
2023/08/19 12:03:49;;;;;;;0.20;0.20;;;31.80;52.90;;;;;;5044921;28;20695;-85
2023/08/19 12:06:16;;;;;;;0.00;0.00;;;31.70;53.30;;;;;;5036264;28;20060;-85
2023/08/19 12:08:49;;;;;;;0.00;0.00;;;31.60;52.70;;;;;;5044781;28;20064;-84
2023/08/19 12:11:23;;;;;;;0.00;0.00;;;31.60;52.80;;;;;;5046995;28;20096;-83
2023/08/19 12:13:50;;;;;;;0.00;0.00;;;31.50;52.30;;;;;;5039362;28;20025;-84
2023/08/19 12:16:18;;;;;;;0.00;0.00;;;31.40;54.20;;;;;;5036197;28;20044;-86
2023/08/19 12:18:44;;;;;;;0.00;0.00;;;31.30;52.50;;;;;;5035787;28;20060;-84
2023/08/19 12:21:10;;;;;;;;;;;31.50;53.40;;;;;;5034331;28;20551;-84
2023/08/19 12:23:36;;;;;;;0.05;0.03;;;31.60;54.40;;;;;;5033420;28;20063;-82
2023/08/19 12:26:02;;;;;;;0.22;0.22;;;31.40;57.50;;;;;;5046052;28;20021;-83
2023/08/19 12:28:30;;;;;;;0.20;0.20;;;31.40;56.80;;;;;;5045289;28;20033;-83
2023/08/19 12:30:57;;;;;;;0.00;0.00;;;31.50;57.50;;;;;;5029112;28;20059;-86
2023/08/19 12:33:22;;;;;;;;;;;31.40;59.90;;;;;;5043810;28;20064;-83
2023/08/19 12:35:49;;;;;;;0.00;0.00;;;31.20;57.80;;;;;;5038618;28;20644;-85
2023/08/19 12:38:17;;;;;;;0.00;0.00;;;31.20;54.40;;;;;;5046378;28;20033;-83
2023/08/19 12:40:44;;;;;;;0.00;0.00;;;31.00;54.00;;;;;;5048223;28;20773;-83
2023/08/19 12:43:12;;;;;;;0.00;0.00;;;30.90;53.40;;;;;;5046463;28;20025;-83
2023/08/19 12:45:38;;;;;;;0.10;0.10;;;30.90;55.90;;;;;;5021254;28;20338;-85
2023/08/19 12:48:05;;;;;;;0.00;0.00;;;31.00;54.90;;;;;;5047736;28;20029;-84
2023/08/19 12:50:31;;;;;;;0.45;0.45;;;31.00;56.50;;;;;;5042954;28;20090;-84
2023/08/19 12:52:57;;;;;;;0.00;0.00;;;30.90;54.30;;;;;;5043139;28;20053;-85
2023/08/19 12:55:23;;;;;;;;;;;31.00;56.30;;;;;;5021290;28;20977;-85
2023/08/19 12:57:54;;;;;;;0.00;0.00;;;30.90;55.10;;;;;;5024503;28;19964;-85
2023/08/19 13:00:24;;;;;;;0.00;0.00;;;30.90;56.10;;;;;;5046449;28;20686;-85
2023/08/19 13:02:50;;;;;;;0.00;0.00;;;31.00;59.20;;;;;;5025911;28;20109;-85
2023/08/19 13:05:16;;;;;;;0.17;0.17;;;30.80;56.30;;;;;;5047538;28;20459;-85
2023/08/19 13:07:42;;;;;;;0.00;0.00;;;30.70;54.00;;;;;;5045805;28;20029;-84
2023/08/19 13:10:10;;;;;;;2.90;0.63;;;30.80;55.40;;;;;;5051199;28;20032;-86
2023/08/19 13:12:37;;;;;;;0.00;0.00;;;30.70;55.30;;;;;;5035468;28;20036;-84
2023/08/19 13:15:03;;;;;;;0.00;0.00;;;30.60;55.70;;;;;;5038858;28;20873;-87
2023/08/19 13:17:29;;;;;;;;;;;30.70;55.90;;;;;;5018136;28;20491;-85
2023/08/19 13:19:57;;;;;;;0.05;0.05;;;30.70;58.50;;;;;;5037818;28;19913;-85
2023/08/19 13:22:24;;;;;;;0.03;0.03;;;30.80;58.00;;;;;;5032809;28;20641;-90
2023/08/19 13:24:53;;;;;;;0.00;0.00;;;30.80;56.20;;;;;;5045903;28;20032;-93
2023/08/19 13:27:19;;;;;;;0.00;0.00;;;30.70;58.00;;;;;;5044845;28;20440;-86
2023/08/19 13:29:45;;;;;;;;;;;30.70;58.50;;;;;;5026232;28;20037;-87
2023/08/19 13:32:12;;;;;;;0.13;0.13;;;30.70;64.40;;;;;;5046460;28;19969;-88